Time;durP1;ratioP1;P1;durP2;ratioP2;P2;SDS_P1;SDS_P2;PMS_P1;PMS_P2;Temp;Humidity;BMP_temperature;BMP_pressure;BME280_temperature;BME280_humidity;BME280_pressure;Samples;Min_cycle;Max_cycle;Signal;HPM_P1;HPM_P2
2023/08/14 00:00:38;;;;;;;10.05;5.17;;;;;;;18.69;66.40;100822.51;1798905;80;21492;-60
2023/08/14 00:03:07;;;;;;;9.73;5.70;;;;;;;18.68;66.54;100818.04;1799077;80;21509;-61
2023/08/14 00:05:35;;;;;;;10.45;5.62;;;;;;;18.70;66.66;100820.58;1799251;80;21073;-61
2023/08/14 00:08:05;;;;;;;11.18;5.67;;;;;;;18.68;66.75;100824.14;1799070;80;21001;-61
2023/08/14 00:10:33;;;;;;;12.35;5.65;;;;;;;18.68;66.73;100828.30;1799217;80;21461;-61
2023/08/14 00:13:02;;;;;;;11.73;5.87;;;;;;;18.66;66.76;100824.38;1799212;80;21041;-60
2023/08/14 00:15:31;;;;;;;11.70;6.20;;;;;;;18.66;66.74;100825.77;1788020;80;21090;-62
2023/08/14 00:18:00;;;;;;;8.35;5.30;;;;;;;18.65;66.84;100831.02;1782172;80;20979;-61
2023/08/14 00:20:29;;;;;;;14.53;5.55;;;;;;;18.66;66.92;100834.63;1782119;80;21467;-61
2023/08/14 00:22:58;;;;;;;11.53;5.97;;;;;;;18.66;66.91;100830.47;1782273;80;21059;-61
2023/08/14 00:25:27;;;;;;;10.48;5.78;;;;;;;18.66;67.01;100832.70;1782080;80;21046;-62
2023/08/14 00:27:55;;;;;;;12.43;6.10;;;;;;;18.68;67.07;100839.41;1782040;80;21042;-61
2023/08/14 00:30:24;;;;;;;11.43;6.08;;;;;;;18.66;67.13;100831.31;1782312;80;21051;-60
2023/08/14 00:32:54;;;;;;;9.65;5.78;;;;;;;18.64;67.15;100833.48;1782153;80;21011;-61
2023/08/14 00:35:23;;;;;;;10.88;5.85;;;;;;;18.61;67.22;100833.97;1782337;80;21055;-61
2023/08/14 00:37:52;;;;;;;10.55;5.90;;;;;;;18.57;67.32;100832.73;1782195;80;21047;-62
2023/08/14 00:40:20;;;;;;;11.25;5.83;;;;;;;18.55;67.49;100831.28;1782052;80;21091;-61
2023/08/14 00:42:49;;;;;;;9.35;5.95;;;;;;;18.55;67.69;100832.66;1782032;80;21929;-61
2023/08/14 00:45:21;;;;;;;10.85;5.90;;;;;;;18.54;67.73;100831.81;1782058;80;21088;-60
2023/08/14 00:47:51;;;;;;;11.53;6.03;;;;;;;18.55;67.69;100833.51;1782010;80;21031;-62
2023/08/14 00:50:20;;;;;;;12.95;6.10;;;;;;;18.48;67.65;100834.16;1782326;80;20980;-63
2023/08/14 00:52:51;;;;;;;11.15;5.87;;;;;;;18.46;67.67;100834.95;1782011;80;21038;-61
2023/08/14 00:55:28;;;;;;;11.25;6.10;;;;;;;18.46;67.77;100839.65;1752930;80;21156;-62
2023/08/14 00:57:57;;;;;;;12.68;5.95;;;;;;;18.43;67.89;100828.48;1782133;80;21054;-61
2023/08/14 01:00:28;;;;;;;12.43;6.60;;;;;;;18.40;68.08;100831.73;1782259;80;21031;-61
2023/08/14 01:02:57;;;;;;;14.00;6.30;;;;;;;18.40;68.20;100826.73;1782369;80;21047;-62
2023/08/14 01:05:25;;;;;;;10.80;6.45;;;;;;;18.39;68.32;100835.59;1782185;80;21031;-61
2023/08/14 01:07:55;;;;;;;11.97;6.40;;;;;;;18.41;68.40;100833.97;1782017;80;21031;-61
2023/08/14 01:10:26;;;;;;;12.73;6.72;;;;;;;18.40;68.37;100834.52;1782101;80;21538;-61
2023/08/14 01:13:06;;;;;;;13.98;6.83;;;;;;;18.42;68.34;100833.73;1782108;80;21474;-62
2023/08/14 01:15:47;;;;;;;11.48;6.72;;;;;;;18.43;68.20;100835.97;1789574;80;21042;-60
2023/08/14 01:18:17;;;;;;;13.58;6.78;;;;;;;18.41;68.17;100829.27;1796485;80;20986;-60
2023/08/14 01:21:19;;;;;;;10.25;6.25;;;;;;;18.40;68.29;100824.80;1796128;80;21023;-61
2023/08/14 01:24:11;;;;;;;13.13;6.30;;;;;;;18.41;68.25;100829.27;1796099;80;21564;-61
2023/08/14 01:26:41;;;;;;;11.83;6.42;;;;;;;18.42;68.29;100833.73;1796286;80;21197;-61
2023/08/14 01:29:10;;;;;;;10.70;6.45;;;;;;;18.40;68.38;100834.52;1796303;80;21462;-60
2023/08/14 01:31:38;;;;;;;13.25;6.67;;;;;;;18.39;68.49;100836.98;1767916;80;21082;-61
2023/08/14 01:34:07;;;;;;;14.23;7.10;;;;;;;18.37;68.50;100837.77;1796431;80;21054;-61
2023/08/14 01:36:53;;;;;;;15.00;7.65;;;;;;;18.34;68.61;100839.09;1796231;80;21532;-61
2023/08/14 01:39:24;;;;;;;13.53;7.03;;;;;;;18.33;68.66;100840.72;1796161;80;21029;-60
2023/08/14 01:42:16;;;;;;;11.70;6.55;;;;;;;18.31;68.83;100831.23;1796471;80;21026;-61
2023/08/14 01:44:45;;;;;;;10.63;6.37;;;;;;;18.33;68.99;100840.72;1796057;80;20987;-61
2023/08/14 01:47:16;;;;;;;14.30;6.08;;;;;;;18.32;69.15;100840.41;1796325;80;21054;-60
2023/08/14 01:49:44;;;;;;;12.20;6.35;;;;;;;18.31;69.21;100840.95;1796420;80;21033;-61
2023/08/14 01:52:13;;;;;;;14.13;6.25;;;;;;;18.30;69.31;100841.19;1768074;80;21431;-62
2023/08/14 01:54:42;;;;;;;9.40;5.90;;;;;;;18.30;69.37;100848.13;1796391;80;21015;-61
2023/08/14 01:57:12;;;;;;;11.03;6.30;;;;;;;18.29;69.27;100841.73;1796124;80;21077;-61
2023/08/14 01:59:45;;;;;;;10.78;5.83;;;;;;;18.28;69.17;100841.97;1796213;80;21030;-61
2023/08/14 02:02:15;;;;;;;9.90;5.85;;;;;;;18.26;69.10;100844.98;1796695;80;21046;-61
2023/08/14 02:04:44;;;;;;;13.20;5.83;;;;;;;18.24;69.06;100842.14;1796509;80;20991;-62
2023/08/14 02:07:13;;;;;;;10.93;5.50;;;;;;;18.23;69.05;100843.23;1796283;80;21034;-61
2023/08/14 02:09:42;;;;;;;17.50;6.55;;;;;;;18.23;69.11;100847.39;1796066;80;21078;-61
2023/08/14 02:12:11;;;;;;;13.08;6.25;;;;;;;18.20;69.06;100849.21;1796053;80;21078;-61
2023/08/14 02:14:41;;;;;;;9.18;5.75;;;;;;;18.15;69.13;100856.86;1796228;80;21034;-61
2023/08/14 02:17:10;;;;;;;13.10;6.33;;;;;;;18.12;69.21;100859.26;1782223;80;21019;-61
2023/08/14 02:19:39;;;;;;;9.95;6.17;;;;;;;18.09;69.24;100859.73;1781996;80;21046;-61
2023/08/14 02:22:07;;;;;;;9.83;6.00;;;;;;;18.10;69.18;100861.42;1782015;80;21035;-61
2023/08/14 02:24:35;;;;;;;11.70;6.33;;;;;;;18.09;69.15;100862.50;1782299;80;21011;-60
2023/08/14 02:27:05;;;;;;;13.38;7.20;;;;;;;18.12;69.11;100862.03;1782037;80;21019;-61
2023/08/14 02:29:34;;;;;;;12.78;7.92;;;;;;;18.10;69.04;100862.27;1782038;80;21038;-61
2023/08/14 02:32:04;;;;;;;14.50;7.58;;;;;;;18.05;69.09;100862.98;1782259;80;21019;-61
2023/08/14 02:34:44;;;;;;;12.15;8.05;;;;;;;18.04;69.25;100870.14;1782167;80;21083;-61
2023/08/14 02:37:13;;;;;;;13.90;8.48;;;;;;;18.03;69.32;100870.69;1782270;80;21455;-61
2023/08/14 02:39:42;;;;;;;11.90;8.28;;;;;;;18.03;69.36;100869.30;1782164;80;21020;-61
2023/08/14 02:42:11;;;;;;;11.97;7.35;;;;;;;18.03;69.33;100872.07;1782043;80;21533;-62
2023/08/14 02:44:39;;;;;;;13.80;7.85;;;;;;;18.01;69.37;100868.69;1782227;80;21031;-62
2023/08/14 02:47:08;;;;;;;9.90;6.70;;;;;;;18.00;69.56;100869.77;1781949;80;21504;-62
2023/08/14 02:49:37;;;;;;;9.40;5.60;;;;;;;18.01;69.68;100872.00;1781980;80;21071;-61
2023/08/14 02:52:06;;;;;;;10.00;6.15;;;;;;;18.03;69.67;100876.23;1782142;80;21043;-60
2023/08/14 02:54:35;;;;;;;7.65;5.28;;;;;;;18.04;69.52;100875.15;1751746;80;20988;-61
2023/08/14 02:57:04;;;;;;;12.40;5.85;;;;;;;18.05;69.40;100876.84;1781984;80;21066;-60
2023/08/14 02:59:33;;;;;;;9.48;5.53;;;;;;;18.02;69.42;100887.56;1781858;80;21007;-61
2023/08/14 03:02:02;;;;;;;10.48;5.60;;;;;;;17.97;69.54;100889.66;1782200;80;21042;-62
2023/08/14 03:04:32;;;;;;;8.00;4.78;;;;;;;17.95;69.67;100884.03;1781954;80;21478;-61
2023/08/14 03:07:01;;;;;;;9.75;5.62;;;;;;;17.95;69.75;100886.80;1760020;80;21046;-61
2023/08/14 03:09:30;;;;;;;9.48;5.08;;;;;;;17.95;69.82;100890.42;1696549;82;21077;-61
2023/08/14 03:11:59;;;;;;;10.00;5.12;;;;;;;17.93;69.91;100891.73;1750606;82;21071;-61
2023/08/14 03:14:27;;;;;;;8.13;5.00;;;;;;;17.94;69.88;100894.28;1750800;82;21139;-61
2023/08/14 03:16:56;;;;;;;8.38;4.90;;;;;;;17.95;69.86;100886.27;1743978;82;21051;-61
2023/08/14 03:19:26;;;;;;;10.13;5.30;;;;;;;17.96;69.70;100887.95;1742882;82;21027;-60
2023/08/14 03:21:55;;;;;;;9.15;4.92;;;;;;;17.97;69.55;100897.97;1742716;82;21055;-61
2023/08/14 03:24:23;;;;;;;9.50;5.22;;;;;;;17.95;69.46;100895.13;1742854;82;21023;-61
2023/08/14 03:26:52;;;;;;;9.70;4.75;;;;;;;17.93;69.59;100893.97;1742551;82;21050;-61
2023/08/14 03:29:22;;;;;;;9.55;5.45;;;;;;;17.93;69.66;100893.12;1742770;82;21007;-61
2023/08/14 03:31:51;;;;;;;10.35;5.08;;;;;;;17.92;69.75;100890.05;1743027;82;21011;-61
2023/08/14 03:34:20;;;;;;;10.48;5.05;;;;;;;17.90;69.89;100897.22;1742982;82;21027;-60
2023/08/14 03:36:49;;;;;;;9.28;5.30;;;;;;;17.88;69.95;100897.98;1742717;82;21023;-61
2023/08/14 03:39:18;;;;;;;8.85;5.22;;;;;;;17.86;70.06;100894.60;1742910;82;21086;-63
2023/08/14 03:41:47;;;;;;;11.65;5.50;;;;;;;17.88;70.05;100899.91;1742850;82;21051;-61
2023/08/14 03:44:15;;;;;;;13.08;5.55;;;;;;;17.91;69.95;100900.29;1743015;82;21063;-60
2023/08/14 03:46:45;;;;;;;10.48;5.20;;;;;;;17.96;69.85;100900.44;1742780;82;21067;-61
2023/08/14 03:49:15;;;;;;;12.93;5.75;;;;;;;17.99;69.64;100897.19;1742934;82;21043;-60
2023/08/14 03:51:44;;;;;;;13.48;6.05;;;;;;;18.05;69.70;100899.56;1742673;82;21012;-61
2023/08/14 03:54:13;;;;;;;14.25;5.78;;;;;;;18.12;69.58;100905.02;1742964;82;21058;-60
2023/08/14 03:56:41;;;;;;;11.33;5.65;;;;;;;18.18;69.43;100904.08;1742998;82;21230;-61
2023/08/14 03:59:12;;;;;;;8.98;5.37;;;;;;;18.24;69.29;100901.24;1742910;82;21053;-61
2023/08/14 04:01:43;;;;;;;13.18;5.30;;;;;;;18.32;69.22;100905.61;1742771;82;21071;-61
2023/08/14 04:04:12;;;;;;;10.20;5.78;;;;;;;18.39;68.89;100909.13;1742736;82;21075;-61
2023/08/14 04:06:44;;;;;;;8.65;4.97;;;;;;;18.47;68.71;100903.78;1742873;82;21047;-61
2023/08/14 04:09:12;;;;;;;9.20;5.80;;;;;;;18.54;68.35;100904.52;1742982;82;21039;-60
2023/08/14 04:11:41;;;;;;;11.38;5.55;;;;;;;18.59;68.28;100906.04;1742915;82;21090;-61
2023/08/14 04:14:10;;;;;;;10.78;5.78;;;;;;;18.65;67.74;100907.34;1742738;82;21445;-61
2023/08/14 04:16:43;;;;;;;25.60;6.17;;;;;;;18.73;67.59;100906.70;1742645;82;21474;-61
2023/08/14 04:19:15;;;;;;;14.30;6.45;;;;;;;18.78;67.35;100913.22;1742892;82;21047;-61
2023/08/14 04:21:44;;;;;;;7.42;5.42;;;;;;;18.83;67.05;100910.58;1743053;82;21098;-63
2023/08/14 04:24:13;;;;;;;10.00;5.60;;;;;;;18.91;66.67;100909.41;1742795;82;21055;-60
2023/08/14 04:26:41;;;;;;;36.95;7.00;;;;;;;18.98;66.59;100908.75;1742699;82;21027;-63
2023/08/14 04:29:12;;;;;;;13.40;6.00;;;;;;;19.07;66.10;100906.45;1742948;82;21031;-62
2023/08/14 04:31:41;;;;;;;9.33;5.53;;;;;;;19.12;65.92;100915.75;1742961;82;21152;-61
2023/08/14 04:34:10;;;;;;;13.45;5.87;;;;;;;19.19;65.92;100911.47;1742941;82;21055;-62
2023/08/14 04:36:41;;;;;;;8.48;5.70;;;;;;;19.26;65.74;100908.86;1742830;82;21023;-60
2023/08/14 04:39:10;;;;;;;7.97;5.20;;;;;;;19.33;65.20;100912.91;1742902;82;21038;-61
2023/08/14 04:41:41;;;;;;;9.30;5.20;;;;;;;19.41;64.68;100915.31;1742608;82;21588;-62
2023/08/14 04:44:10;;;;;;;13.93;5.72;;;;;;;19.49;64.20;100916.33;1742730;82;21066;-59
2023/08/14 04:46:40;;;;;;;9.18;5.60;;;;;;;19.57;64.06;100921.58;1742740;82;21031;-62
2023/08/14 04:49:11;;;;;;;23.77;8.45;;;;;;;19.65;63.89;100918.97;1740203;82;21036;-61
2023/08/14 04:51:40;;;;;;;69.90;9.50;;;;;;;19.73;63.81;100921.36;1742913;82;21114;-61
2023/08/14 04:54:09;;;;;;;68.55;7.53;;;;;;;19.82;63.37;100920.43;1742924;82;21036;-61
2023/08/14 04:56:38;;;;;;;53.68;8.95;;;;;;;19.90;63.13;100916.72;1742888;82;21443;-62
2023/08/14 04:59:06;;;;;;;17.12;6.80;;;;;;;19.98;63.23;100920.20;1742672;82;21050;-61
2023/08/14 05:01:35;;;;;;;10.20;5.85;;;;;;;20.05;63.14;100916.73;1742695;82;21067;-61
2023/08/14 05:04:05;;;;;;;9.33;5.20;;;;;;;20.12;62.83;100928.55;1742747;82;21039;-61
2023/08/14 05:06:34;;;;;;;6.78;4.45;;;;;;;20.20;62.41;100930.42;1742633;82;21015;-61
2023/08/14 05:09:03;;;;;;;10.58;6.10;;;;;;;20.31;62.13;100932.86;1742785;82;21083;-61
2023/08/14 05:11:34;;;;;;;10.68;5.08;;;;;;;20.41;61.83;100934.47;1739308;82;21472;-61
2023/08/14 05:14:03;;;;;;;10.18;4.67;;;;;;;20.51;61.51;100928.25;1742863;82;21023;-61
2023/08/14 05:16:33;;;;;;;9.73;4.97;;;;;;;20.61;61.23;100934.00;1742609;82;21074;-60
2023/08/14 05:19:02;;;;;;;12.78;4.72;;;;;;;20.70;60.95;100933.04;1742709;82;21015;-61
2023/08/14 05:21:30;;;;;;;12.00;4.97;;;;;;;20.77;60.78;100935.96;1742640;82;21103;-61
2023/08/14 05:23:59;;;;;;;15.72;5.20;;;;;;;20.88;60.52;100928.66;1742943;82;21407;-62
2023/08/14 05:26:28;;;;;;;10.30;4.87;;;;;;;20.99;60.30;100934.69;1742663;82;21039;-62
2023/08/14 05:28:57;;;;;;;9.88;4.70;;;;;;;21.09;60.06;100933.45;1742544;82;21086;-61
2023/08/14 05:31:26;;;;;;;11.38;4.60;;;;;;;21.16;59.92;100934.12;1742551;82;21011;-61
2023/08/14 05:33:54;;;;;;;7.97;4.87;;;;;;;21.24;59.76;100933.44;1742586;82;21030;-61
2023/08/14 05:36:24;;;;;;;9.33;4.80;;;;;;;21.32;59.56;100941.36;1742698;82;21028;-62
2023/08/14 05:38:53;;;;;;;8.35;4.75;;;;;;;21.38;59.39;100941.18;1742651;82;21074;-62
2023/08/14 05:41:22;;;;;;;6.53;4.67;;;;;;;21.44;59.27;100937.92;1742757;82;21087;-62
2023/08/14 05:43:52;;;;;;;11.03;4.45;;;;;;;21.51;59.02;100942.25;1742745;82;21035;-60
2023/08/14 05:46:23;;;;;;;9.35;4.70;;;;;;;21.57;58.73;100944.55;1742639;82;21063;-61
2023/08/14 05:48:51;;;;;;;10.38;5.10;;;;;;;21.62;58.62;100942.39;1742697;82;21042;-61
2023/08/14 05:51:20;;;;;;;11.63;6.25;;;;;;;21.67;58.58;100941.06;1742753;82;21027;-63
2023/08/14 05:53:49;;;;;;;11.03;5.20;;;;;;;21.72;58.45;100942.53;1742857;82;21023;-61
2023/08/14 05:56:18;;;;;;;8.38;4.60;;;;;;;21.76;58.48;100938.95;1742842;82;21083;-62
2023/08/14 05:58:47;;;;;;;9.68;5.10;;;;;;;21.82;58.43;100940.71;1742626;82;21221;-61
2023/08/14 06:01:15;;;;;;;10.85;5.05;;;;;;;21.87;58.49;100944.12;1742911;82;21523;-62
2023/08/14 06:03:45;;;;;;;12.15;5.08;;;;;;;21.94;58.60;100940.58;1742835;82;21070;-61
2023/08/14 06:06:14;;;;;;;10.13;4.37;;;;;;;22.01;58.46;100937.59;1742889;82;21071;-61
2023/08/14 06:08:42;;;;;;;9.23;4.90;;;;;;;22.05;58.24;100938.24;1742799;82;21055;-61
2023/08/14 06:11:11;;;;;;;10.20;4.42;;;;;;;22.11;57.88;100944.77;1742770;82;21028;-62
2023/08/14 06:13:40;;;;;;;9.23;5.00;;;;;;;22.18;57.67;100949.59;1742612;82;21122;-61
2023/08/14 06:16:10;;;;;;;10.50;5.47;;;;;;;22.25;57.15;100952.18;1740442;82;21070;-62
2023/08/14 06:18:38;;;;;;;7.12;4.80;;;;;;;22.33;56.95;100948.92;1715377;82;21101;-63
2023/08/14 06:21:07;;;;;;;7.80;4.10;;;;;;;22.38;56.67;100952.61;1715242;82;21038;-61
2023/08/14 06:23:36;;;;;;;8.70;4.70;;;;;;;22.43;56.21;100954.06;1715341;84;21030;-62
2023/08/14 06:26:05;;;;;;;12.13;4.50;;;;;;;22.50;55.81;100948.82;1715163;84;21109;-61
2023/08/14 06:28:33;;;;;;;9.23;3.90;;;;;;;22.57;55.77;100957.28;1715474;84;21050;-61
2023/08/14 06:31:02;;;;;;;9.78;3.70;;;;;;;22.63;55.33;100958.17;1715156;84;21508;-62
2023/08/14 06:33:31;;;;;;;10.35;4.30;;;;;;;22.74;54.69;100950.18;1715103;84;21053;-62
2023/08/14 06:35:59;;;;;;;5.53;3.00;;;;;;;23.07;53.59;100954.17;1715474;84;21023;-61
2023/08/14 06:38:30;;;;;;;8.30;3.25;;;;;;;23.56;51.83;100956.81;1715129;84;21050;-62
2023/08/14 06:40:59;;;;;;;6.72;3.20;;;;;;;24.09;50.25;100958.23;1715363;84;21042;-61
2023/08/14 06:43:29;;;;;;;7.00;2.98;;;;;;;24.55;49.01;100962.88;1715321;84;21070;-62
2023/08/14 06:45:57;;;;;;;25.92;22.50;;;;;;;25.12;47.78;100961.03;1715357;82;21030;-60
2023/08/14 06:48:26;;;;;;;9.53;4.95;;;;;;;25.63;46.72;100965.20;1715453;84;21054;-62
2023/08/14 06:50:56;;;;;;;8.80;3.75;;;;;;;26.12;45.41;100963.41;1715270;84;21490;-61
2023/08/14 06:53:26;;;;;;;11.48;3.70;;;;;;;26.52;44.04;100966.60;1715054;84;21034;-62
2023/08/14 06:55:55;;;;;;;9.33;3.27;;;;;;;26.85;43.29;100970.62;1715159;82;21050;-61
2023/08/14 06:58:24;;;;;;;8.85;3.17;;;;;;;27.20;42.56;100967.84;1715361;84;21046;-62
2023/08/14 07:00:54;;;;;;;7.33;3.00;;;;;;;27.54;41.66;100965.86;1715039;84;21102;-61
2023/08/14 07:03:23;;;;;;;8.43;3.30;;;;;;;27.89;40.57;100967.47;1715081;84;21055;-62
2023/08/14 07:05:52;;;;;;;6.00;3.27;;;;;;;28.17;39.76;100962.09;1715402;84;21477;-62
2023/08/14 07:08:21;;;;;;;5.65;3.47;;;;;;;28.43;39.61;100964.86;1715304;84;21057;-61
2023/08/14 07:10:49;;;;;;;8.63;3.50;;;;;;;28.78;38.53;100959.87;1715354;84;21073;-59
2023/08/14 07:13:18;;;;;;;9.23;3.08;;;;;;;29.12;37.54;100965.27;1715259;82;21046;-61
2023/08/14 07:15:48;;;;;;;10.70;3.90;;;;;;;29.33;37.03;100964.63;1714114;82;21016;-61
2023/08/14 07:18:22;;;;;;;5.20;3.10;;;;;;;29.59;36.68;100969.84;1737514;82;21049;-59
2023/08/14 07:20:48;;;;;;;15.70;5.62;;;;;;;29.86;35.35;100972.70;1742768;82;21045;-60
2023/08/14 07:23:17;;;;;;;4.60;3.10;;;;;;;30.04;35.43;100978.63;1742769;82;21088;-61
2023/08/14 07:25:46;;;;;;;6.80;3.27;;;;;;;30.27;34.89;100976.15;1742902;82;21034;-61
2023/08/14 07:28:15;;;;;;;9.18;3.12;;;;;;;30.50;34.43;100976.48;1742856;82;21489;-61
2023/08/14 07:30:43;;;;;;;7.17;3.30;;;;;;;30.74;34.31;100969.20;1742602;82;21076;-61
2023/08/14 07:33:13;;;;;;;6.33;2.95;;;;;;;31.06;33.79;100976.62;1742769;82;21028;-61
2023/08/14 07:35:42;;;;;;;5.37;2.85;;;;;;;31.31;32.59;100972.36;1742707;82;21024;-61
2023/08/14 07:38:12;;;;;;;5.30;2.90;;;;;;;31.42;32.17;100968.68;1742755;82;21053;-61
2023/08/14 07:40:42;;;;;;;3.98;2.27;;;;;;;31.46;31.97;100964.03;1742700;82;21465;-61
2023/08/14 07:43:11;;;;;;;5.55;2.60;;;;;;;31.47;31.90;100965.13;1742734;82;21029;-62
2023/08/14 07:45:40;;;;;;;5.20;2.87;;;;;;;31.54;31.67;100962.67;1742919;82;21049;-62
2023/08/14 07:48:09;;;;;;;5.50;2.95;;;;;;;31.67;31.69;100965.16;1742908;82;21546;-60
2023/08/14 07:50:37;;;;;;;4.65;2.83;;;;;;;31.85;31.23;100966.94;1743037;82;21476;-61
2023/08/14 07:53:07;;;;;;;5.28;3.25;;;;;;;32.02;31.11;100963.94;1742874;82;21017;-60
2023/08/14 07:55:37;;;;;;;4.35;2.55;;;;;;;32.18;30.92;100966.58;1742749;82;21426;-61
2023/08/14 07:58:06;;;;;;;5.12;2.47;;;;;;;32.37;30.80;100964.31;1742906;82;21429;-61
2023/08/14 08:00:35;;;;;;;7.55;2.60;;;;;;;32.57;30.24;100963.46;1742626;82;21559;-60
2023/08/14 08:03:04;;;;;;;6.70;2.70;;;;;;;32.67;29.98;100961.72;1743025;82;21081;-61
2023/08/14 08:05:34;;;;;;;6.67;2.67;;;;;;;32.79;29.84;100966.18;1742774;82;21068;-60
2023/08/14 08:08:04;;;;;;;5.45;2.25;;;;;;;32.80;29.54;100970.69;1742919;81;21099;-61
2023/08/14 08:10:33;;;;;;;8.95;3.50;;;;;;;32.81;29.44;100968.09;1731320;81;21112;-60
2023/08/14 08:13:03;;;;;;;5.55;2.40;;;;;;;32.88;28.96;100971.86;1746102;80;21073;-61
2023/08/14 08:15:32;;;;;;;4.45;2.58;;;;;;;32.94;29.27;100964.84;1747616;81;21035;-61
2023/08/14 08:18:01;;;;;;;5.83;2.95;;;;;;;33.03;29.27;100967.92;1756157;81;21044;-61
2023/08/14 08:20:30;;;;;;;7.90;2.40;;;;;;;33.13;29.33;100960.23;1766575;81;21444;-64
2023/08/14 08:22:59;;;;;;;5.40;2.40;;;;;;;33.25;28.81;100967.52;1777233;81;21068;-62
2023/08/14 08:25:30;;;;;;;4.08;2.62;;;;;;;33.34;28.23;100957.83;1777157;81;21037;-61
2023/08/14 08:27:59;;;;;;;3.75;2.10;;;;;;;33.36;28.04;100956.07;1771373;80;21492;-62
2023/08/14 08:30:27;;;;;;;6.55;2.90;;;;;;;33.34;28.53;100961.27;1760281;81;21454;-61
2023/08/14 08:32:56;;;;;;;3.72;2.42;;;;;;;33.39;28.44;100962.50;1760201;81;21059;-63
2023/08/14 08:35:27;;;;;;;4.78;2.60;;;;;;;33.52;28.21;100964.89;1759534;81;21071;-60
2023/08/14 08:37:56;;;;;;;8.90;2.35;;;;;;;33.52;27.88;100961.46;1760257;81;21028;-62
2023/08/14 08:40:24;;;;;;;4.30;2.80;;;;;;;33.33;27.99;100965.27;1760351;81;21036;-62
2023/08/14 08:42:53;;;;;;;4.78;2.47;;;;;;;33.26;28.51;100966.34;1747017;82;21080;-64
2023/08/14 08:45:24;;;;;;;3.62;2.17;;;;;;;33.38;28.46;100967.34;1758516;81;21029;-62
2023/08/14 08:47:53;;;;;;;4.25;2.30;;;;;;;33.46;28.11;100962.81;1777221;81;21044;-61
2023/08/14 08:50:22;;;;;;;3.70;2.27;;;;;;;33.42;27.99;100963.83;1776940;81;21025;-62
2023/08/14 08:52:50;;;;;;;9.95;2.87;;;;;;;33.39;28.16;100964.76;1776994;81;21469;-60
2023/08/14 08:55:20;;;;;;;4.47;2.50;;;;;;;33.46;28.12;100962.81;1777149;81;21033;-61
2023/08/14 08:57:49;;;;;;;7.60;3.67;;;;;;;33.58;28.17;100965.80;1777058;81;21445;-61
2023/08/14 09:00:18;;;;;;;5.50;2.40;;;;;;;33.75;27.97;100965.48;1777037;81;21048;-62
2023/08/14 09:02:47;;;;;;;4.80;2.60;;;;;;;33.83;27.66;100974.04;1777189;81;21025;-63
2023/08/14 09:05:17;;;;;;;7.47;3.50;;;;;;;33.76;27.50;100974.26;1776849;80;21044;-62
2023/08/14 09:07:49;;;;;;;4.58;2.45;;;;;;;33.60;27.67;100973.39;1777160;81;21052;-62
2023/08/14 09:10:18;;;;;;;3.67;2.22;;;;;;;33.55;27.71;100965.05;1777366;81;21057;-62
2023/08/14 09:12:50;;;;;;;6.72;2.75;;;;;;;33.43;27.66;100964.91;1776943;81;21065;-61
2023/08/14 09:15:20;;;;;;;4.25;2.30;;;;;;;33.19;28.25;100963.17;1777091;81;21092;-62
2023/08/14 09:17:54;;;;;;;7.72;2.50;;;;;;;33.08;27.94;100960.66;1770491;81;21524;-61
2023/08/14 09:20:23;;;;;;;5.67;2.90;;;;;;;32.90;28.26;100959.00;1740267;81;21543;-60
2023/08/14 09:22:57;;;;;;;3.50;2.30;;;;;;;32.70;28.52;100956.21;1735993;82;21058;-61
2023/08/14 09:25:26;;;;;;;4.83;2.25;;;;;;;32.55;28.61;100951.61;1736831;82;21165;-61
2023/08/14 09:27:56;;;;;;;4.35;2.50;;;;;;;32.39;28.75;100946.97;1736762;82;21038;-60
2023/08/14 09:30:26;;;;;;;6.50;2.70;;;;;;;32.26;28.97;100945.94;1714421;82;21096;-61
2023/08/14 09:32:55;;;;;;;4.10;2.47;;;;;;;32.14;29.39;100947.97;1746749;82;21048;-61
2023/08/14 09:35:24;;;;;;;4.83;2.60;;;;;;;32.07;29.34;100951.03;1736589;82;21080;-63
2023/08/14 09:37:53;;;;;;;4.03;2.52;;;;;;;31.92;29.42;100947.23;1737035;82;21456;-62
2023/08/14 09:40:21;;;;;;;3.65;2.42;;;;;;;31.80;29.47;100942.15;1746901;82;21036;-60
2023/08/14 09:42:52;;;;;;;4.75;2.40;;;;;;;31.65;29.67;100956.72;1736642;82;20989;-61
2023/08/14 09:45:24;;;;;;;5.10;2.58;;;;;;;31.40;29.91;100944.92;1747024;82;21080;-61
2023/08/14 09:47:52;;;;;;;5.62;2.60;;;;;;;31.14;30.23;100941.03;1746832;82;21437;-60
2023/08/14 09:50:25;;;;;;;5.58;2.40;;;;;;;30.94;30.66;100947.21;1664709;82;21053;-61
2023/08/14 09:52:51;;;;;;;7.15;2.98;;;;;;;30.87;31.05;100943.41;1693418;82;21045;-61
2023/08/14 09:55:22;;;;;;;4.42;2.80;;;;;;;30.88;31.16;100940.27;1716491;82;21029;-62
2023/08/14 09:57:51;;;;;;;4.05;2.37;;;;;;;30.89;30.90;100943.93;1736564;82;21068;-61
2023/08/14 10:00:19;;;;;;;9.65;7.47;;;;;;;30.83;30.90;100936.14;1738201;82;21108;-62
2023/08/14 10:02:48;;;;;;;4.70;2.95;;;;;;;30.79;31.26;100939.36;1736732;82;21452;-63
2023/08/14 10:05:18;;;;;;;6.00;2.75;;;;;;;30.82;31.01;100940.13;1746939;82;21496;-61
2023/08/14 10:07:46;;;;;;;5.95;3.15;;;;;;;30.79;31.14;100939.36;1736617;82;21526;-63
2023/08/14 10:10:15;;;;;;;6.75;3.00;;;;;;;30.81;31.58;100939.88;1691054;82;21108;-62
2023/08/14 10:12:49;;;;;;;6.50;2.85;;;;;;;30.84;31.60;100934.16;1746795;82;21029;-62
2023/08/14 10:15:24;;;;;;;6.50;2.75;;;;;;;30.84;31.22;100934.98;1736642;82;21084;-62
2023/08/14 10:18:01;;;;;;;6.95;3.27;;;;;;;30.76;31.34;100940.58;1736564;82;21485;-61
2023/08/14 10:20:33;;;;;;;7.42;2.60;;;;;;;30.69;31.14;100944.43;1755598;81;21030;-61
2023/08/14 10:23:03;;;;;;;8.78;2.62;;;;;;;30.69;31.01;100934.52;1758009;81;21554;-61
2023/08/14 10:25:31;;;;;;;2.75;2.17;;;;;;;30.63;30.88;100944.30;1757917;81;21028;-62
2023/08/14 10:28:02;;;;;;;3.98;2.50;;;;;;;30.48;31.12;100950.50;1758318;81;21060;-62
2023/08/14 10:30:33;;;;;;;8.35;3.12;;;;;;;30.45;31.03;100943.23;1758290;81;21057;-61
2023/08/14 10:33:02;;;;;;;6.92;3.37;;;;;;;30.39;31.18;100934.60;1757823;81;21085;-61
2023/08/14 10:35:50;;;;;;;4.15;2.65;;;;;;;30.34;31.40;100936.97;1737149;81;21029;-60
2023/08/14 10:38:19;;;;;;;4.55;2.45;;;;;;;30.32;31.55;100933.62;1758170;81;21033;-62
2023/08/14 10:40:54;;;;;;;7.00;2.70;;;;;;;30.33;31.70;100934.46;1757696;81;21062;-62
2023/08/14 10:43:26;;;;;;;6.85;3.05;;;;;;;30.32;31.77;100934.20;1758073;81;21042;-62
2023/08/14 10:45:54;;;;;;;9.68;3.50;;;;;;;30.29;31.81;100930.02;1758117;81;21504;-60
2023/08/14 10:48:24;;;;;;;4.67;2.52;;;;;;;30.29;31.98;100924.36;1758070;80;21033;-62
2023/08/14 10:50:59;;;;;;;5.70;2.58;;;;;;;30.34;31.60;100928.48;1757866;81;21057;-62
2023/08/14 10:53:36;;;;;;;5.95;2.58;;;;;;;30.38;31.60;100932.35;1758266;81;21483;-61
2023/08/14 10:56:10;;;;;;;4.80;2.47;;;;;;;30.42;31.61;100936.80;1758120;81;21069;-60
2023/08/14 10:58:41;;;;;;;3.15;2.22;;;;;;;30.35;31.69;100932.15;1758166;81;21045;-66
2023/08/14 11:01:10;;;;;;;4.75;2.50;;;;;;;30.28;31.78;100926.93;1757953;81;21100;-62
2023/08/14 11:03:59;;;;;;;3.85;2.40;;;;;;;30.26;32.15;100929.23;1758245;81;21085;-61
2023/08/14 11:06:29;;;;;;;5.40;2.40;;;;;;;30.28;32.04;100927.77;1758196;81;21053;-61
2023/08/14 11:08:59;;;;;;;8.73;3.00;;;;;;;30.28;32.15;100917.87;1757979;81;21033;-61
2023/08/14 11:11:29;;;;;;;7.05;3.08;;;;;;;30.31;32.18;100922.05;1757805;81;21190;-61
2023/08/14 11:13:57;;;;;;;5.60;2.83;;;;;;;30.36;31.94;100920.52;1737299;81;21074;-61
2023/08/14 11:16:26;;;;;;;6.58;2.72;;;;;;;30.43;31.76;100913.85;1758146;81;21057;-62
2023/08/14 11:18:54;;;;;;;4.28;2.33;;;;;;;30.48;31.67;100910.91;1762893;80;21477;-61
2023/08/14 11:21:25;;;;;;;3.50;2.30;;;;;;;30.47;31.66;100912.64;1745605;82;21442;-61
2023/08/14 11:23:55;;;;;;;5.30;2.60;;;;;;;30.42;31.45;100919.83;1744535;82;21040;-63
2023/08/14 11:26:30;;;;;;;6.72;2.87;;;;;;;30.39;31.27;100912.81;1745721;82;21071;-62
2023/08/14 11:28:58;;;;;;;7.03;2.47;;;;;;;30.36;31.51;100904.97;1740850;82;21088;-61
2023/08/14 11:31:28;;;;;;;5.70;2.58;;;;;;;30.34;31.54;100897.38;1745422;82;21517;-60
2023/08/14 11:33:59;;;;;;;2.80;2.50;;;;;;;30.35;31.58;100898.22;1743421;82;21387;-61